Physt, Washington
Current Conditions -  °F | °C
As of 6:12 PM on Saturday 25 Oct 2014 (Local Time) from KCLM Reporting Station
Heavy Rain Heavy Rain  
Wind Chill: 53°   Ceiling: 300
Heat Index: 53°   Visibility: 2.5mi
Dew Point: 50°   Wind: 12mph
Humidity: 89%   Direction: 260°W
Pressure: 29.25"   Gusts: NA
Location:  48.0203°N, 123.478°W
Report Text: KCLM 260112Z AUTO 26010KT 2 1/2SM +RA BR OVC003 12/10 A2925 RMK AO2 P0007 T01170100 TSNO $
Loading
Personal Weather Stations






























Interactive Weather Map
Tropical Storm Tracking
New forecast layout! Learn more

10-Day Weather Forecast

Advertisements
Track Severe Weather on mobile